sensor_id;sensor_type;location;lat;lon;timestamp;pressure;altitude;pressure_sealevel;temperature;humidity
5350;BME280;2697;42.144;24.794;2022-11-15T00:01:24;8995.06;;;7.77;100.00
5350;BME280;2697;42.144;24.794;2022-11-15T00:03:53;9331.63;;;7.88;100.00
5350;BME280;2697;42.144;24.794;2022-11-15T00:06:18;11005.38;;;7.84;100.00
5350;BME280;2697;42.144;24.794;2022-11-15T00:08:44;12012.34;;;7.93;100.00
5350;BME280;2697;42.144;24.794;2022-11-15T00:11:11;13688.44;;;7.94;100.00
5350;BME280;2697;42.144;24.794;2022-11-15T00:13:36;15027.63;;;7.86;100.00
5350;BME280;2697;42.144;24.794;2022-11-15T00:16:02;14694.44;;;7.94;100.00
5350;BME280;2697;42.144;24.794;2022-11-15T00:18:28;15028.03;;;7.88;100.00
5350;BME280;2697;42.144;24.794;2022-11-15T00:20:55;15030.19;;;7.96;100.00
5350;BME280;2697;42.144;24.794;2022-11-15T00:23:21;17046.88;;;8.09;100.00
5350;BME280;2697;42.144;24.794;2022-11-15T00:25:46;20743.00;;;8.16;100.00
5350;BME280;2697;42.144;24.794;2022-11-15T00:28:11;24778.09;;;8.19;100.00
5350;BME280;2697;42.144;24.794;2022-11-15T00:30:37;28142.47;;;8.18;100.00
5350;BME280;2697;42.144;24.794;2022-11-15T00:33:04;30167.97;;;8.28;100.00
5350;BME280;2697;42.144;24.794;2022-11-15T00:35:33;26789.72;;;8.04;100.00
5350;BME280;2697;42.144;24.794;2022-11-15T00:37:59;20066.16;;;8.02;100.00
5350;BME280;2697;42.144;24.794;2022-11-15T00:40:25;17035.72;;;7.71;100.00
5350;BME280;2697;42.144;24.794;2022-11-15T00:42:50;13007.19;;;7.47;100.00
5350;BME280;2697;42.144;24.794;2022-11-15T00:45:16;8988.25;;;7.36;100.00
5350;BME280;2697;42.144;24.794;2022-11-15T00:47:44;5308.72;;;7.22;100.00
5350;BME280;2697;42.144;24.794;2022-11-15T00:50:10;2635.94;;;7.10;100.00
5350;BME280;2697;42.144;24.794;2022-11-15T00:52:35;-33.81;;;7.12;100.00
5350;BME280;2697;42.144;24.794;2022-11-15T00:55:01;-2701.88;;;7.15;100.00
5350;BME280;2697;42.144;24.794;2022-11-15T00:57:26;-4368.22;;;7.10;100.00
5350;BME280;2697;42.144;24.794;2022-11-15T00:59:52;-6034.03;;;7.10;100.00
5350;BME280;2697;42.144;24.794;2022-11-15T01:02:17;-7366.38;;;7.12;100.00
5350;BME280;2697;42.144;24.794;2022-11-15T01:04:43;-8033.28;;;7.22;100.00
5350;BME280;2697;42.144;24.794;2022-11-15T01:07:08;-8036.44;;;7.50;100.00
5350;BME280;2697;42.144;24.794;2022-11-15T01:09:33;-6037.78;;;7.57;100.00
5350;BME280;2697;42.144;24.794;2022-11-15T01:11:59;-4369.44;;;7.33;100.00
5350;BME280;2697;42.144;24.794;2022-11-15T01:14:24;-4702.38;;;7.26;100.00
5350;BME280;2697;42.144;24.794;2022-11-15T01:16:49;-5368.44;;;7.20;100.00
5350;BME280;2697;42.144;24.794;2022-11-15T01:19:15;-6700.91;;;7.19;100.00
5350;BME280;2697;42.144;24.794;2022-11-15T01:21:40;-8033.53;;;7.24;100.00
5350;BME280;2697;42.144;24.794;2022-11-15T01:24:07;-8700.00;;;7.28;100.00
5350;BME280;2697;42.144;24.794;2022-11-15T01:26:33;-9699.78;;;7.36;100.00
5350;BME280;2697;42.144;24.794;2022-11-15T01:28:58;-10033.03;;;7.38;100.00
5350;BME280;2697;42.144;24.794;2022-11-15T01:31:24;-10699.06;;;7.40;100.00
5350;BME280;2697;42.144;24.794;2022-11-15T01:33:49;-11032.31;;;7.43;100.00
5350;BME280;2697;42.144;24.794;2022-11-15T01:36:17;-11031.97;;;7.41;100.00
5350;BME280;2697;42.144;24.794;2022-11-15T01:38:44;-11032.47;;;7.44;100.00
5350;BME280;2697;42.144;24.794;2022-11-15T01:41:17;-11370.78;;;7.77;100.00
5350;BME280;2697;42.144;24.794;2022-11-15T01:43:43;-9704.22;;;7.68;100.00
5350;BME280;2697;42.144;24.794;2022-11-15T01:46:17;-9037.81;;;7.66;100.00
5350;BME280;2697;42.144;24.794;2022-11-15T01:48:44;-8704.63;;;7.66;100.00
5350;BME280;2697;42.144;24.794;2022-11-15T01:51:13;-8372.22;;;7.72;100.00
5350;BME280;2697;42.144;24.794;2022-11-15T01:53:42;-7706.06;;;7.76;100.00
5350;BME280;2697;42.144;24.794;2022-11-15T01:56:14;-7039.13;;;7.72;100.00
5350;BME280;2697;42.144;24.794;2022-11-15T01:58:42;-6705.50;;;7.69;100.00
5350;BME280;2697;42.144;24.794;2022-11-15T02:01:11;-6706.13;;;7.77;100.00
5350;BME280;2697;42.144;24.794;2022-11-15T02:03:51;-6372.56;;;7.75;100.00
5350;BME280;2697;42.144;24.794;2022-11-15T02:06:20;-6705.91;;;7.74;100.00
5350;BME280;2697;42.144;24.794;2022-11-15T02:08:46;-6705.69;;;7.71;100.00
5350;BME280;2697;42.144;24.794;2022-11-15T02:11:12;-7039.31;;;7.75;100.00
5350;BME280;2697;42.144;24.794;2022-11-15T02:13:38;-7373.25;;;7.81;100.00
5350;BME280;2697;42.144;24.794;2022-11-15T02:16:12;-6706.22;;;7.78;100.00
5350;BME280;2697;42.144;24.794;2022-11-15T02:21:47;-4371.59;;;7.74;100.00
5350;BME280;2697;42.144;24.794;2022-11-15T02:29:50;-2703.78;;;7.91;100.00
5350;BME280;2697;42.144;24.794;2022-11-15T02:32:34;-1702.19;;;7.87;100.00
5350;BME280;2697;42.144;24.794;2022-11-15T02:37:32;635.88;;;7.94;100.00
5350;BME280;2697;42.144;24.794;2022-11-15T02:42:37;3977.97;;;7.88;100.00
5350;BME280;2697;42.144;24.794;2022-11-15T02:45:30;3644.09;;;7.94;100.00
5350;BME280;2697;42.144;24.794;2022-11-15T02:47:59;3979.63;;;8.08;100.00
5350;BME280;2697;42.144;24.794;2022-11-15T02:50:28;4648.25;;;8.04;100.00
5350;BME280;2697;42.144;24.794;2022-11-15T02:52:55;5989.00;;;8.24;100.00
5350;BME280;2697;42.144;24.794;2022-11-15T02:55:31;7997.06;;;8.18;100.00
5350;BME280;2697;42.144;24.794;2022-11-15T03:00:26;9001.38;;;8.15;100.00
5350;BME280;2697;42.144;24.794;2022-11-15T03:08:29;10674.34;;;8.04;100.00
5350;BME280;2697;42.144;24.794;2022-11-15T03:11:03;6992.13;;;8.15;100.00
5350;BME280;2697;42.144;24.794;2022-11-15T03:13:49;6656.78;;;8.11;100.00
5350;BME280;2697;42.144;24.794;2022-11-15T03:19:02;4985.09;;;8.26;100.00
5350;BME280;2697;42.144;24.794;2022-11-15T03:21:30;6324.63;;;8.32;100.00
5350;BME280;2697;42.144;24.794;2022-11-15T03:24:01;7328.22;;;8.24;100.00
5350;BME280;2697;42.144;24.794;2022-11-15T03:26:29;7327.22;;;8.17;100.00
5350;BME280;2697;42.144;24.794;2022-11-15T03:29:00;7996.03;;;8.11;100.00
5350;BME280;2697;42.144;24.794;2022-11-15T03:31:32;8663.31;;;7.96;100.00
5350;BME280;2697;42.144;24.794;2022-11-15T03:36:56;10338.38;;;7.99;100.00
5350;BME280;2697;42.144;24.794;2022-11-15T03:39:23;11340.97;;;7.87;100.00
5350;BME280;2697;42.144;24.794;2022-11-15T03:45:01;10671.41;;;7.89;100.00
5350;BME280;2697;42.144;24.794;2022-11-15T03:47:32;11007.81;;;7.96;100.00
5350;BME280;2697;42.144;24.794;2022-11-15T03:50:08;11677.59;;;7.94;100.00
5350;BME280;2697;42.144;24.794;2022-11-15T03:52:35;13016.59;;;7.88;100.00
5350;BME280;2697;42.144;24.794;2022-11-15T03:55:02;13016.13;;;7.86;100.00
5350;BME280;2697;42.144;24.794;2022-11-15T03:57:28;12682.25;;;7.91;100.00
5350;BME280;2697;42.144;24.794;2022-11-15T03:59:54;13356.56;;;8.08;100.00
5350;BME280;2697;42.144;24.794;2022-11-15T04:02:19;15706.59;;;8.16;100.00
5350;BME280;2697;42.144;24.794;2022-11-15T04:04:45;18384.72;;;7.94;100.00
5350;BME280;2697;42.144;24.794;2022-11-15T04:07:10;17379.13;;;7.98;100.00
5350;BME280;2697;42.144;24.794;2022-11-15T04:09:36;17044.47;;;8.01;100.00
5350;BME280;2697;42.144;24.794;2022-11-15T04:12:20;17713.16;;;7.93;100.00
5350;BME280;2697;42.144;24.794;2022-11-15T04:17:37;19066.97;;;8.27;100.00
5350;BME280;2697;42.144;24.794;2022-11-15T04:20:05;22423.25;;;8.16;100.00
5350;BME280;2697;42.144;24.794;2022-11-15T04:22:52;24103.59;;;8.15;100.00
5350;BME280;2697;42.144;24.794;2022-11-15T04:25:37;24433.06;;;7.98;100.00
5350;BME280;2697;42.144;24.794;2022-11-15T04:28:02;23426.03;;;8.02;100.00
5350;BME280;2697;42.144;24.794;2022-11-15T04:30:28;23091.72;;;8.07;100.00
5350;BME280;2697;42.144;24.794;2022-11-15T04:32:53;23094.53;;;8.14;100.00
5350;BME280;2697;42.144;24.794;2022-11-15T04:35:18;23766.72;;;8.13;100.00
5350;BME280;2697;42.144;24.794;2022-11-15T04:37:44;24780.69;;;8.25;100.00
5350;BME280;2697;42.144;24.794;2022-11-15T04:40:09;27126.16;;;8.04;100.00
5350;BME280;2697;42.144;24.794;2022-11-15T04:42:35;27125.91;;;8.04;100.00
5350;BME280;2697;42.144;24.794;2022-11-15T04:45:00;30818.09;;;7.83;100.00
5350;BME280;2697;42.144;24.794;2022-11-15T04:47:25;30144.56;;;7.83;100.00
5350;BME280;2697;42.144;24.794;2022-11-15T04:49:52;32167.47;;;7.88;100.00
5350;BME280;2697;42.144;24.794;2022-11-15T04:52:18;38226.78;;;7.76;100.00
5350;BME280;2697;42.144;24.794;2022-11-15T04:54:43;43620.31;;;7.67;100.00
5350;BME280;2697;42.144;24.794;2022-11-15T04:57:08;48012.09;;;7.66;100.00
5350;BME280;2697;42.144;24.794;2022-11-15T04:59:34;52062.78;;;7.57;100.00
5350;BME280;2697;42.144;24.794;2022-11-15T05:01:59;52058.78;;;7.53;100.00
5350;BME280;2697;42.144;24.794;2022-11-15T05:04:24;51374.75;;;7.44;100.00
5350;BME280;2697;42.144;24.794;2022-11-15T05:06:51;52401.56;;;7.58;100.00
5350;BME280;2697;42.144;24.794;2022-11-15T05:09:18;53068.44;;;7.47;100.00
5350;BME280;2697;42.144;24.794;2022-11-15T05:11:43;51385.28;;;7.56;100.00
5350;BME280;2697;42.144;24.794;2022-11-15T05:14:09;52401.13;;;7.57;100.00
5350;BME280;2697;42.144;24.794;2022-11-15T05:16:35;51722.69;;;7.55;100.00
5350;BME280;2697;42.144;24.794;2022-11-15T05:19:00;52063.22;;;7.58;100.00
5350;BME280;2697;42.144;24.794;2022-11-15T05:21:26;52736.81;;;7.54;100.00
5350;BME280;2697;42.144;24.794;2022-11-15T05:23:51;51042.66;;;7.51;100.00
5350;BME280;2697;42.144;24.794;2022-11-15T05:26:17;47997.78;;;7.49;100.00
5350;BME280;2697;42.144;24.794;2022-11-15T05:28:44;44965.84;;;7.60;100.00
5350;BME280;2697;42.144;24.794;2022-11-15T05:31:11;45308.25;;;7.66;100.00
5350;BME280;2697;42.144;24.794;2022-11-15T05:33:39;45307.88;;;7.65;100.00
5350;BME280;2697;42.144;24.794;2022-11-15T05:36:09;45653.88;;;7.76;100.00
5350;BME280;2697;42.144;24.794;2022-11-15T05:38:37;47683.81;;;7.79;100.00
5350;BME280;2697;42.144;24.794;2022-11-15T05:41:03;48027.25;;;7.85;100.00
5350;BME280;2697;42.144;24.794;2022-11-15T05:43:30;48374.91;;;7.97;100.00
5350;BME280;2697;42.144;24.794;2022-11-15T05:45:58;51071.38;;;7.85;100.00
5350;BME280;2697;42.144;24.794;2022-11-15T05:48:24;49388.09;;;7.95;100.00
5350;BME280;2697;42.144;24.794;2022-11-15T05:50:50;52101.81;;;8.02;100.00
5350;BME280;2697;42.144;24.794;2022-11-15T05:53:19;53803.38;;;8.11;100.00
5350;BME280;2697;42.144;24.794;2022-11-15T05:55:47;57183.97;;;8.02;100.00
5350;BME280;2697;42.144;24.794;2022-11-15T05:58:12;54462.94;;;7.91;100.00
5350;BME280;2697;42.144;24.794;2022-11-15T06:00:38;47681.38;;;7.76;100.00
5350;BME280;2697;42.144;24.794;2022-11-15T06:03:04;40938.41;;;7.94;100.00
5350;BME280;2697;42.144;24.794;2022-11-15T06:05:30;41954.16;;;7.98;100.00
5350;BME280;2697;42.144;24.794;2022-11-15T06:07:58;41951.31;;;7.94;100.00
5350;BME280;2697;42.144;24.794;2022-11-15T06:10:24;39586.91;;;7.92;100.00
5350;BME280;2697;42.144;24.794;2022-11-15T06:13:00;36878.94;;;7.77;100.00
5350;BME280;2697;42.144;24.794;2022-11-15T06:15:26;33173.44;;;7.80;100.00
5350;BME280;2697;42.144;24.794;2022-11-15T06:17:51;31483.59;;;7.68;100.00
5350;BME280;2697;42.144;24.794;2022-11-15T06:20:17;28117.19;;;7.65;100.00
5350;BME280;2697;42.144;24.794;2022-11-15T06:22:43;25091.56;;;7.66;100.00
5350;BME280;2697;42.144;24.794;2022-11-15T06:25:08;23073.00;;;7.59;100.00
5350;BME280;2697;42.144;24.794;2022-11-15T06:27:33;20051.72;;;7.60;100.00
5350;BME280;2697;42.144;24.794;2022-11-15T06:29:59;17033.44;;;7.64;100.00
5350;BME280;2697;42.144;24.794;2022-11-15T06:32:24;15021.88;;;7.64;100.00
5350;BME280;2697;42.144;24.794;2022-11-15T06:34:50;14688.13;;;7.70;100.00
5350;BME280;2697;42.144;24.794;2022-11-15T06:37:15;15361.75;;;7.82;100.00
5350;BME280;2697;42.144;24.794;2022-11-15T06:39:41;18381.00;;;7.82;100.00
5350;BME280;2697;42.144;24.794;2022-11-15T06:42:08;21070.88;;;7.94;100.00
5350;BME280;2697;42.144;24.794;2022-11-15T06:44:33;25110.75;;;8.11;100.00
5350;BME280;2697;42.144;24.794;2022-11-15T06:46:59;37908.38;;;8.05;100.00
5350;BME280;2697;42.144;24.794;2022-11-15T06:49:24;52454.25;;;8.18;100.00
5350;BME280;2697;42.144;24.794;2022-11-15T06:51:49;59934.31;;;8.39;100.00
5350;BME280;2697;42.144;24.794;2022-11-15T06:54:15;74566.44;;;8.46;100.00
5350;BME280;2697;42.144;24.794;2022-11-15T06:56:40;84826.53;;;8.63;100.00
5350;BME280;2697;42.144;24.794;2022-11-15T06:59:05;99553.28;;;8.67;100.00
5350;BME280;2697;42.144;24.794;2022-11-15T07:01:31;142789.34;;;8.42;100.00
5350;BME280;2697;42.144;24.794;2022-11-15T07:03:57;130235.94;;;8.67;100.00
5350;BME280;2697;42.144;24.794;2022-11-15T07:06:22;148187.56;;;8.71;100.00
5350;BME280;2697;42.144;24.794;2022-11-15T07:08:48;147974.88;;;8.77;100.00
5350;BME280;2697;42.144;24.794;2022-11-15T07:11:13;153889.47;;;8.66;100.00
5350;BME280;2697;42.144;24.794;2022-11-15T07:13:39;154804.44;;;8.68;100.00
5350;BME280;2697;42.144;24.794;2022-11-15T07:16:06;154795.19;;;8.65;100.00
5350;BME280;2697;42.144;24.794;2022-11-15T07:18:36;154841.22;;;8.82;100.00
5350;BME280;2697;42.144;24.794;2022-11-15T07:21:06;154893.84;;;9.03;100.00
5350;BME280;2697;42.144;24.794;2022-11-15T07:23:33;154922.78;;;9.14;100.00
5350;BME280;2697;42.144;24.794;2022-11-15T07:25:58;154930.66;;;9.17;100.00
5350;BME280;2697;42.144;24.794;2022-11-15T07:28:25;154953.03;;;9.26;100.00
5350;BME280;2697;42.144;24.794;2022-11-15T07:30:51;154972.75;;;9.33;100.00
5350;BME280;2697;42.144;24.794;2022-11-15T07:33:16;155033.25;;;9.57;100.00
5350;BME280;2697;42.144;24.794;2022-11-15T07:35:43;155059.56;;;9.67;99.93
5350;BME280;2697;42.144;24.794;2022-11-15T07:38:11;155091.19;;;9.79;100.00
5350;BME280;2697;42.144;24.794;2022-11-15T07:40:36;155083.25;;;9.76;98.15
5350;BME280;2697;42.144;24.794;2022-11-15T07:43:04;155167.50;;;10.09;98.01
5350;BME280;2697;42.144;24.794;2022-11-15T07:45:30;155120.13;;;9.90;96.93
5350;BME280;2697;42.144;24.794;2022-11-15T07:47:56;155135.94;;;9.96;98.15
5350;BME280;2697;42.144;24.794;2022-11-15T07:50:23;155172.75;;;10.11;97.46
5350;BME280;2697;42.144;24.794;2022-11-15T07:52:53;155232.06;;;10.34;97.87
5350;BME280;2697;42.144;24.794;2022-11-15T07:55:19;155243.91;;;10.38;96.59
5350;BME280;2697;42.144;24.794;2022-11-15T07:57:44;155257.09;;;10.43;96.86
5350;BME280;2697;42.144;24.794;2022-11-15T08:00:10;155238.63;;;10.36;95.69
5350;BME280;2697;42.144;24.794;2022-11-15T08:02:35;155228.06;;;10.32;95.55
5350;BME280;2697;42.144;24.794;2022-11-15T08:05:01;155254.47;;;10.42;96.16
5350;BME280;2697;42.144;24.794;2022-11-15T08:07:29;155280.78;;;10.52;96.24
5350;BME280;2697;42.144;24.794;2022-11-15T08:09:55;155304.47;;;10.62;95.15
5350;BME280;2697;42.144;24.794;2022-11-15T08:12:21;155291.28;;;10.56;94.12
5350;BME280;2697;42.144;24.794;2022-11-15T08:14:47;155296.56;;;10.59;95.24
5350;BME280;2697;42.144;24.794;2022-11-15T08:17:12;155312.38;;;10.65;94.99
5350;BME280;2697;42.144;24.794;2022-11-15T08:19:38;155311.06;;;10.64;93.84
5350;BME280;2697;42.144;24.794;2022-11-15T08:22:03;155333.44;;;10.73;94.18
5350;BME280;2697;42.144;24.794;2022-11-15T08:24:28;155372.94;;;10.88;93.90
5350;BME280;2697;42.144;24.794;2022-11-15T08:26:54;155399.31;;;10.98;94.22
5350;BME280;2697;42.144;24.794;2022-11-15T08:29:19;155396.63;;;10.97;93.56
5350;BME280;2697;42.144;24.794;2022-11-15T08:31:45;155396.63;;;10.97;93.14
5350;BME280;2697;42.144;24.794;2022-11-15T08:34:10;155388.75;;;10.94;92.90
5350;BME280;2697;42.144;24.794;2022-11-15T08:36:36;155424.34;;;11.08;93.48
5350;BME280;2697;42.144;24.794;2022-11-15T08:39:01;155408.50;;;11.02;92.62
5350;BME280;2697;42.144;24.794;2022-11-15T08:41:33;155446.69;;;11.17;92.92
5350;BME280;2697;42.144;24.794;2022-11-15T08:43:59;155442.75;;;11.15;92.38
5350;BME280;2697;42.144;24.794;2022-11-15T08:46:24;155502.06;;;11.38;92.18
5350;BME280;2697;42.144;24.794;2022-11-15T08:48:50;155512.56;;;11.42;91.45
5350;BME280;2697;42.144;24.794;2022-11-15T08:51:15;155528.41;;;11.48;91.44
5350;BME280;2697;42.144;24.794;2022-11-15T08:53:41;155517.84;;;11.44;90.79
5350;BME280;2697;42.144;24.794;2022-11-15T08:56:07;155553.44;;;11.58;90.45
5350;BME280;2697;42.144;24.794;2022-11-15T08:58:33;155534.97;;;11.51;90.26
5350;BME280;2697;42.144;24.794;2022-11-15T09:00:59;155567.97;;;11.63;91.19
5350;BME280;2697;42.144;24.794;2022-11-15T09:03:24;155567.97;;;11.63;91.85
5350;BME280;2697;42.144;24.794;2022-11-15T09:05:57;155583.72;;;11.69;93.00
5350;BME280;2697;42.144;24.794;2022-11-15T09:08:23;155585.06;;;11.70;91.98
5350;BME280;2697;42.144;24.794;2022-11-15T09:10:48;155625.97;;;11.86;92.52
5350;BME280;2697;42.144;24.794;2022-11-15T09:13:14;155644.44;;;11.93;91.56
5350;BME280;2697;42.144;24.794;2022-11-15T09:15:39;155672.13;;;12.04;89.91
5350;BME280;2697;42.144;24.794;2022-11-15T09:18:05;155681.31;;;12.07;89.71
5350;BME280;2697;42.144;24.794;2022-11-15T09:20:30;155697.16;;;12.13;90.34
5350;BME280;2697;42.144;24.794;2022-11-15T09:23:00;155744.63;;;12.32;89.63
5350;BME280;2697;42.144;24.794;2022-11-15T09:25:26;155731.41;;;12.26;89.76
5350;BME280;2697;42.144;24.794;2022-11-15T09:27:52;155730.09;;;12.26;89.50
5350;BME280;2697;42.144;24.794;2022-11-15T09:30:17;155728.78;;;12.25;90.74
5350;BME280;2697;42.144;24.794;2022-11-15T09:32:43;155736.72;;;12.29;90.63
5350;BME280;2697;42.144;24.794;2022-11-15T09:35:08;155772.31;;;12.42;89.90
5350;BME280;2697;42.144;24.794;2022-11-15T09:37:33;155752.53;;;12.35;89.67
5350;BME280;2697;42.144;24.794;2022-11-15T09:39:59;155742.00;;;12.31;89.70
5350;BME280;2697;42.144;24.794;2022-11-15T09:45:34;155739.38;;;12.30;90.33
5350;BME280;2697;42.144;24.794;2022-11-15T09:50:45;155810.56;;;12.57;88.69
5350;BME280;2697;42.144;24.794;2022-11-15T09:56:19;155840.91;;;12.69;88.13
5350;BME280;2697;42.144;24.794;2022-11-15T10:04:16;155747.25;;;12.33;89.35
5350;BME280;2697;42.144;24.794;2022-11-15T10:06:52;155784.16;;;12.47;89.79
5350;BME280;2697;42.144;24.794;2022-11-15T10:12:28;155822.44;;;12.62;87.62
5350;BME280;2697;42.144;24.794;2022-11-15T10:15:09;155821.09;;;12.61;86.62
5350;BME280;2697;42.144;24.794;2022-11-15T10:22:50;155829.00;;;12.64;86.71
5350;BME280;2697;42.144;24.794;2022-11-15T10:25:23;155867.28;;;12.79;86.89
5350;BME280;2697;42.144;24.794;2022-11-15T10:27:59;155829.00;;;12.64;86.73
5350;BME280;2697;42.144;24.794;2022-11-15T10:30:39;155892.34;;;12.89;85.43
5350;BME280;2697;42.144;24.794;2022-11-15T10:33:34;155916.09;;;12.98;85.57
5350;BME280;2697;42.144;24.794;2022-11-15T10:43:45;155891.03;;;12.88;84.94
5350;BME280;2697;42.144;24.794;2022-11-15T10:46:26;155896.28;;;12.90;85.78
5350;BME280;2697;42.144;24.794;2022-11-15T10:48:51;155883.13;;;12.85;84.63
5350;BME280;2697;42.144;24.794;2022-11-15T10:51:27;155916.09;;;12.98;84.62
5350;BME280;2697;42.144;24.794;2022-11-15T10:53:56;155897.59;;;12.91;84.72
5350;BME280;2697;42.144;24.794;2022-11-15T10:56:23;155950.38;;;13.11;84.73
5350;BME280;2697;42.144;24.794;2022-11-15T10:58:54;156020.34;;;13.38;82.46
5350;BME280;2697;42.144;24.794;2022-11-15T11:01:25;156032.25;;;13.43;82.76
5350;BME280;2697;42.144;24.794;2022-11-15T11:04:00;156032.25;;;13.43;82.66
5350;BME280;2697;42.144;24.794;2022-11-15T11:06:26;155999.22;;;13.30;82.86
5350;BME280;2697;42.144;24.794;2022-11-15T11:09:00;155976.81;;;13.21;84.49
5350;BME280;2697;42.144;24.794;2022-11-15T11:11:45;156030.94;;;13.42;82.76
5350;BME280;2697;42.144;24.794;2022-11-15T11:14:12;156061.28;;;13.54;81.83
5350;BME280;2697;42.144;24.794;2022-11-15T11:16:46;156013.78;;;13.35;83.33
5350;BME280;2697;42.144;24.794;2022-11-15T11:24:45;156050.75;;;13.50;81.86
5350;BME280;2697;42.144;24.794;2022-11-15T11:38:17;156087.69;;;13.64;81.13
5350;BME280;2697;42.144;24.794;2022-11-15T11:46:30;156170.88;;;13.96;79.99
5350;BME280;2697;42.144;24.794;2022-11-15T11:49:02;156184.03;;;14.01;79.40
5350;BME280;2697;42.144;24.794;2022-11-15T11:51:45;156158.97;;;13.91;79.61
5350;BME280;2697;42.144;24.794;2022-11-15T11:57:29;156157.63;;;13.91;79.82
5350;BME280;2697;42.144;24.794;2022-11-15T12:00:09;156077.13;;;13.60;81.33
5350;BME280;2697;42.144;24.794;2022-11-15T12:02:39;156149.75;;;13.88;79.80
5350;BME280;2697;42.144;24.794;2022-11-15T12:05:15;156161.59;;;13.92;79.29
5350;BME280;2697;42.144;24.794;2022-11-15T12:07:44;156155.00;;;13.90;79.60
5350;BME280;2697;42.144;24.794;2022-11-15T12:10:23;156139.16;;;13.84;79.05
5350;BME280;2697;42.144;24.794;2022-11-15T12:13:04;156086.34;;;13.63;80.76
5350;BME280;2697;42.144;24.794;2022-11-15T12:15:36;156103.53;;;13.70;81.11
5350;BME280;2697;42.144;24.794;2022-11-15T12:18:12;156165.53;;;13.94;79.76
5350;BME280;2697;42.144;24.794;2022-11-15T12:20:42;156202.53;;;14.08;79.23
5350;BME280;2697;42.144;24.794;2022-11-15T12:23:24;156201.22;;;14.08;78.98
5350;BME280;2697;42.144;24.794;2022-11-15T12:26:07;156193.25;;;14.05;78.14
5350;BME280;2697;42.144;24.794;2022-11-15T12:28:51;156198.59;;;14.07;78.53
5350;BME280;2697;42.144;24.794;2022-11-15T12:31:37;156213.06;;;14.12;77.85
5350;BME280;2697;42.144;24.794;2022-11-15T12:36:41;156106.16;;;13.71;79.54
5350;BME280;2697;42.144;24.794;2022-11-15T12:39:09;156125.97;;;13.79;79.79
5350;BME280;2697;42.144;24.794;2022-11-15T12:41:43;156158.97;;;13.91;79.44
5350;BME280;2697;42.144;24.794;2022-11-15T12:44:16;156189.31;;;14.03;78.41
5350;BME280;2697;42.144;24.794;2022-11-15T12:46:59;156186.69;;;14.02;77.84
5350;BME280;2697;42.144;24.794;2022-11-15T13:02:40;156139.16;;;13.84;78.91
5350;BME280;2697;42.144;24.794;2022-11-15T13:17:46;156085.03;;;13.63;81.19
5350;BME280;2697;42.144;24.794;2022-11-15T13:33:16;156013.78;;;13.35;83.18
5350;BME280;2697;42.144;24.794;2022-11-15T13:35:50;156004.56;;;13.32;83.66
5350;BME280;2697;42.144;24.794;2022-11-15T13:40:50;155968.84;;;13.18;84.74
5350;BME280;2697;42.144;24.794;2022-11-15T13:48:34;155947.72;;;13.10;84.67
5350;BME280;2697;42.144;24.794;2022-11-15T13:51:30;155976.81;;;13.21;84.62
5350;BME280;2697;42.144;24.794;2022-11-15T13:53:57;155953.00;;;13.12;84.84
5350;BME280;2697;42.144;24.794;2022-11-15T13:56:23;155934.56;;;13.05;85.55
5350;BME280;2697;42.144;24.794;2022-11-15T13:58:51;155955.69;;;13.13;84.89
5350;BME280;2697;42.144;24.794;2022-11-15T14:01:20;155921.34;;;13.00;85.21
5350;BME280;2697;42.144;24.794;2022-11-15T14:03:58;155910.81;;;12.96;85.20
5350;BME280;2697;42.144;24.794;2022-11-15T14:06:25;155881.81;;;12.84;85.94
5350;BME280;2697;42.144;24.794;2022-11-15T14:11:36;155898.91;;;12.91;85.98
5350;BME280;2697;42.144;24.794;2022-11-15T14:16:44;155893.66;;;12.89;86.67
5350;BME280;2697;42.144;24.794;2022-11-15T14:22:22;155858.06;;;12.75;86.62
5350;BME280;2697;42.144;24.794;2022-11-15T14:28:16;155858.06;;;12.75;87.46
5350;BME280;2697;42.144;24.794;2022-11-15T14:30:54;155834.31;;;12.66;87.95
5350;BME280;2697;42.144;24.794;2022-11-15T14:35:51;155802.63;;;12.54;88.04
5350;BME280;2697;42.144;24.794;2022-11-15T14:38:17;155817.16;;;12.60;88.75
5350;BME280;2697;42.144;24.794;2022-11-15T14:40:43;155818.47;;;12.60;88.88
5350;BME280;2697;42.144;24.794;2022-11-15T14:43:10;155807.91;;;12.56;90.00
5350;BME280;2697;42.144;24.794;2022-11-15T14:45:37;155763.09;;;12.39;90.67
5350;BME280;2697;42.144;24.794;2022-11-15T14:48:02;155752.53;;;12.35;91.50
5350;BME280;2697;42.144;24.794;2022-11-15T14:50:28;155747.25;;;12.33;91.73
5350;BME280;2697;42.144;24.794;2022-11-15T14:52:54;155731.41;;;12.26;91.59
5350;BME280;2697;42.144;24.794;2022-11-15T14:55:25;155702.44;;;12.15;92.98
5350;BME280;2697;42.144;24.794;2022-11-15T14:57:52;155697.16;;;12.13;93.30
5350;BME280;2697;42.144;24.794;2022-11-15T15:00:18;155691.91;;;12.11;93.55
5350;BME280;2697;42.144;24.794;2022-11-15T15:02:46;155662.84;;;12.00;94.56
5350;BME280;2697;42.144;24.794;2022-11-15T15:05:41;155631.25;;;11.88;95.13
5350;BME280;2697;42.144;24.794;2022-11-15T15:08:08;155615.41;;;11.82;95.24
5350;BME280;2697;42.144;24.794;2022-11-15T15:10:39;155583.72;;;11.69;95.87
5350;BME280;2697;42.144;24.794;2022-11-15T15:13:12;155573.22;;;11.65;96.79
5350;BME280;2697;42.144;24.794;2022-11-15T15:15:39;155527.09;;;11.48;97.84
5350;BME280;2697;42.144;24.794;2022-11-15T15:18:05;155517.84;;;11.44;98.09
5350;BME280;2697;42.144;24.794;2022-11-15T15:20:34;155504.69;;;11.39;99.06
5350;BME280;2697;42.144;24.794;2022-11-15T15:23:00;155500.75;;;11.37;98.40
5350;BME280;2697;42.144;24.794;2022-11-15T15:25:31;155488.84;;;11.33;99.48
5350;BME280;2697;42.144;24.794;2022-11-15T15:27:58;155475.72;;;11.28;99.76
5350;BME280;2697;42.144;24.794;2022-11-15T15:30:25;155470.41;;;11.26;99.66
5350;BME280;2697;42.144;24.794;2022-11-15T15:32:50;155482.28;;;11.30;99.51
5350;BME280;2697;42.144;24.794;2022-11-15T15:35:16;155473.09;;;11.27;99.51
5350;BME280;2697;42.144;24.794;2022-11-15T15:37:44;155452.00;;;11.19;99.69
5350;BME280;2697;42.144;24.794;2022-11-15T15:40:23;155452.00;;;11.19;99.64
5350;BME280;2697;42.144;24.794;2022-11-15T15:42:50;155425.66;;;11.08;99.92
5350;BME280;2697;42.144;24.794;2022-11-15T15:45:17;155423.03;;;11.07;100.00